createdAt,value
2016-10-28T00:00:25.487Z,973.77
2016-10-28T00:01:34.189Z,973.73
2016-10-28T00:02:42.891Z,973.68
2016-10-28T00:03:51.589Z,973.66
2016-10-28T00:05:00.288Z,973.64
2016-10-28T00:06:08.997Z,973.64
2016-10-28T00:07:17.695Z,973.63
2016-10-28T00:08:26.409Z,973.6
2016-10-28T00:09:35.105Z,973.58
2016-10-28T00:10:43.810Z,973.51
2016-10-28T00:11:52.546Z,973.48
2016-10-28T00:13:01.245Z,973.45
2016-10-28T00:14:09.949Z,973.35
2016-10-28T00:15:18.656Z,973.3
2016-10-28T00:16:27.359Z,973.25
2016-10-28T00:17:36.106Z,973.24
2016-10-28T00:18:44.800Z,973.3
2016-10-28T00:19:53.501Z,973.37
2016-10-28T00:21:02.238Z,973.31
2016-10-28T00:22:10.941Z,973.3
2016-10-28T00:23:19.641Z,973.35
2016-10-28T00:24:28.343Z,973.35
2016-10-28T00:25:37.046Z,973.43
2016-10-28T00:26:45.753Z,973.4
2016-10-28T00:27:54.455Z,973.39
2016-10-28T00:29:03.191Z,973.39
2016-10-28T00:30:11.895Z,973.35
2016-10-28T00:31:20.595Z,973.24
2016-10-28T00:32:29.331Z,973.21
2016-10-28T00:33:38.027Z,973.15
2016-10-28T00:34:46.720Z,973.08
2016-10-28T00:35:55.453Z,973
2016-10-28T00:37:04.153Z,973.02
2016-10-28T00:38:12.893Z,972.97
2016-10-28T00:39:21.597Z,972.91
2016-10-28T00:40:30.292Z,972.87
2016-10-28T00:41:39.037Z,972.83
2016-10-28T00:42:47.733Z,972.82
2016-10-28T00:43:56.434Z,972.87
2016-10-28T00:45:05.133Z,972.91
2016-10-28T00:46:13.838Z,972.95
2016-10-28T00:47:22.541Z,972.95
2016-10-28T00:48:31.236Z,972.99
2016-10-28T00:49:39.929Z,973.01
2016-10-28T00:50:48.635Z,973.07
2016-10-28T00:51:57.333Z,972.99
2016-10-28T00:53:06.033Z,973.04
2016-10-28T00:54:14.729Z,973.04
2016-10-28T00:55:23.425Z,973.06
2016-10-28T00:56:32.119Z,973.1
2016-10-28T00:57:40.818Z,973.13
2016-10-28T00:58:49.516Z,973.13
2016-10-28T00:59:58.225Z,973.12
2016-10-28T01:01:06.935Z,973.14
2016-10-28T01:02:15.634Z,973.07
2016-10-28T01:03:24.337Z,973.08
2016-10-28T01:04:33.036Z,973.15
2016-10-28T01:05:41.734Z,973.15
2016-10-28T01:06:50.443Z,973.17
2016-10-28T01:07:59.141Z,973.2
2016-10-28T01:09:07.851Z,973.17
2016-10-28T01:10:16.553Z,973.14
2016-10-28T01:11:25.253Z,973.17
2016-10-28T01:12:33.960Z,973.15
2016-10-28T01:13:42.660Z,973.07
2016-10-28T01:14:51.356Z,973.01
2016-10-28T01:16:00.060Z,973.02
2016-10-28T01:17:08.762Z,973.04
2016-10-28T01:18:17.465Z,972.99
2016-10-28T01:19:26.165Z,972.93
2016-10-28T01:20:34.862Z,972.9
2016-10-28T01:21:43.563Z,972.91
2016-10-28T01:22:52.316Z,972.93
2016-10-28T01:24:01.010Z,973
2016-10-28T01:25:09.718Z,973.04
2016-10-28T01:26:18.420Z,973.1
2016-10-28T01:27:27.123Z,973.13
2016-10-28T01:28:35.829Z,973.13
2016-10-28T01:29:44.566Z,973.15
2016-10-28T01:30:53.262Z,973.14
2016-10-28T01:32:01.964Z,973.21
2016-10-28T01:33:10.676Z,973.18
2016-10-28T01:34:19.389Z,973.18
2016-10-28T01:35:28.091Z,973.19
2016-10-28T01:36:36.800Z,973.21
2016-10-28T01:37:45.501Z,973.22
2016-10-28T01:38:54.234Z,973.25
2016-10-28T01:40:02.970Z,973.26
2016-10-28T01:41:11.682Z,973.19
2016-10-28T01:42:20.390Z,973.16
2016-10-28T01:43:29.102Z,973.17
2016-10-28T01:44:37.800Z,973.15
2016-10-28T01:45:46.509Z,973.16
2016-10-28T01:46:55.211Z,973.17
2016-10-28T01:48:03.909Z,973.18
2016-10-28T01:49:12.656Z,973.11
2016-10-28T01:50:21.357Z,973.15
2016-10-28T01:51:30.064Z,973.19
2016-10-28T01:52:38.769Z,973.14
2016-10-28T01:53:47.467Z,973.15
2016-10-28T01:54:56.167Z,973.18
2016-10-28T01:56:05.188Z,973.2
2016-10-28T01:57:13.886Z,973.26
2016-10-28T01:58:22.587Z,973.24
2016-10-28T01:59:31.293Z,973.3
2016-10-28T02:00:40.003Z,973.25
2016-10-28T02:01:48.705Z,973.24
2016-10-28T02:02:57.409Z,973.26
2016-10-28T02:04:06.108Z,973.29
2016-10-28T02:05:14.859Z,973.36
2016-10-28T02:06:23.562Z,973.36
2016-10-28T02:07:32.305Z,973.41
2016-10-28T02:08:40.998Z,973.42
2016-10-28T02:09:49.701Z,973.42
2016-10-28T02:10:58.715Z,973.45
2016-10-28T02:12:07.413Z,973.44
2016-10-28T02:13:16.110Z,973.45
2016-10-28T02:14:24.803Z,973.44
2016-10-28T02:15:33.550Z,973.42
2016-10-28T02:16:42.251Z,973.44
2016-10-28T02:17:50.993Z,973.41
2016-10-28T02:18:59.701Z,973.43
2016-10-28T02:20:08.403Z,973.43
2016-10-28T02:21:17.101Z,973.43
2016-10-28T02:22:25.810Z,973.39
2016-10-28T02:23:34.516Z,973.39
2016-10-28T02:24:43.213Z,973.33
2016-10-28T02:25:51.946Z,973.32
2016-10-28T02:27:00.685Z,973.33
2016-10-28T02:28:09.425Z,973.31
2016-10-28T02:29:18.123Z,973.33
2016-10-28T02:30:26.863Z,973.38
2016-10-28T02:31:35.566Z,973.41
2016-10-28T02:32:44.267Z,973.42
2016-10-28T02:33:52.984Z,973.44
2016-10-28T02:35:01.701Z,973.51
2016-10-28T02:36:10.406Z,973.48
2016-10-28T02:37:19.108Z,973.51
2016-10-28T02:38:27.806Z,973.43
2016-10-28T02:39:36.501Z,973.35
2016-10-28T02:40:45.236Z,973.4
2016-10-28T02:41:53.978Z,973.39
2016-10-28T02:43:02.685Z,973.42
2016-10-28T02:44:11.389Z,973.48
2016-10-28T02:45:20.089Z,973.51
2016-10-28T02:46:28.792Z,973.49
2016-10-28T02:47:37.493Z,973.57
2016-10-28T02:48:46.239Z,973.54
2016-10-28T02:49:54.941Z,973.63
2016-10-28T02:51:03.641Z,973.66
2016-10-28T02:52:12.382Z,973.6
2016-10-28T02:53:21.081Z,973.74
2016-10-28T02:54:29.780Z,973.68
2016-10-28T02:55:38.485Z,973.65
2016-10-28T02:56:47.181Z,973.65
2016-10-28T02:57:55.886Z,973.71
2016-10-28T02:59:04.585Z,973.73
2016-10-28T03:00:13.288Z,973.69
2016-10-28T03:01:22.298Z,973.71
2016-10-28T03:02:31.038Z,973.69
2016-10-28T03:03:39.743Z,973.65
2016-10-28T03:04:48.443Z,973.57
2016-10-28T03:05:57.147Z,973.67
2016-10-28T03:07:05.847Z,973.62
2016-10-28T03:08:14.548Z,973.66
2016-10-28T03:09:23.247Z,973.68
2016-10-28T03:10:32.305Z,973.73
2016-10-28T03:11:41.005Z,973.85
2016-10-28T03:12:49.700Z,973.85
2016-10-28T03:13:58.443Z,973.84
2016-10-28T03:15:07.145Z,973.86
2016-10-28T03:16:15.846Z,973.95
2016-10-28T03:17:24.542Z,973.94
2016-10-28T03:18:33.245Z,973.94
2016-10-28T03:19:41.939Z,973.99
2016-10-28T03:20:50.639Z,974
2016-10-28T03:21:59.334Z,974.01
2016-10-28T03:23:08.042Z,973.92
2016-10-28T03:24:16.752Z,973.96
2016-10-28T03:25:25.449Z,973.95
2016-10-28T03:26:34.190Z,973.94
2016-10-28T03:27:42.899Z,974
2016-10-28T03:28:51.605Z,974.01
2016-10-28T03:30:00.310Z,974.05
2016-10-28T03:31:09.031Z,974.1
2016-10-28T03:32:17.783Z,974.13
2016-10-28T03:33:26.479Z,974.12
2016-10-28T03:34:35.181Z,974.03
2016-10-28T03:35:43.885Z,973.99
2016-10-28T03:36:52.630Z,974
2016-10-28T03:38:01.332Z,973.95
2016-10-28T03:39:10.033Z,973.94
2016-10-28T03:40:18.748Z,973.96
2016-10-28T03:41:27.449Z,973.95
2016-10-28T03:42:36.144Z,973.96
2016-10-28T03:43:44.839Z,974.05
2016-10-28T03:44:53.538Z,974.05
2016-10-28T03:46:02.240Z,974.08
2016-10-28T03:47:10.941Z,974.09
2016-10-28T03:48:19.679Z,974.11
2016-10-28T03:49:28.387Z,974.13
2016-10-28T03:50:37.089Z,974.14
2016-10-28T03:51:45.787Z,974.15
2016-10-28T03:52:54.487Z,974.15
2016-10-28T03:54:03.185Z,974.19
2016-10-28T03:55:11.881Z,974.21
2016-10-28T03:56:20.581Z,974.2
2016-10-28T03:57:29.315Z,974.23
2016-10-28T03:58:38.015Z,974.18
2016-10-28T03:59:46.716Z,974.14
2016-10-28T04:00:55.421Z,974.18
2016-10-28T04:02:04.126Z,974.16
2016-10-28T04:03:12.821Z,974.18
2016-10-28T04:04:21.518Z,974.19
2016-10-28T04:05:30.254Z,974.16
2016-10-28T04:06:38.954Z,974.16
2016-10-28T04:07:47.653Z,974.19
2016-10-28T04:08:56.360Z,974.22
2016-10-28T04:10:05.056Z,974.22
2016-10-28T04:11:13.753Z,974.25
2016-10-28T04:12:22.476Z,974.24
2016-10-28T04:13:31.183Z,974.27
2016-10-28T04:14:39.889Z,974.26
2016-10-28T04:15:48.592Z,974.23
2016-10-28T04:16:57.326Z,974.26
2016-10-28T04:18:06.344Z,974.24
2016-10-28T04:19:15.053Z,974.23
2016-10-28T04:20:23.751Z,974.22
2016-10-28T04:21:32.452Z,974.27
2016-10-28T04:22:41.155Z,974.26
2016-10-28T04:23:49.854Z,974.28
2016-10-28T04:24:58.551Z,974.38
2016-10-28T04:26:07.255Z,974.37
2016-10-28T04:27:15.954Z,974.4
2016-10-28T04:28:24.644Z,974.42
2016-10-28T04:29:33.338Z,974.47
2016-10-28T04:30:42.037Z,974.52
2016-10-28T04:31:50.735Z,974.44
2016-10-28T04:32:59.479Z,974.53
2016-10-28T04:34:08.176Z,974.58
2016-10-28T04:35:16.906Z,974.57
2016-10-28T04:36:25.637Z,974.56
2016-10-28T04:37:34.377Z,974.57
2016-10-28T04:38:43.083Z,974.55
2016-10-28T04:39:51.787Z,974.62
2016-10-28T04:41:00.799Z,974.63
2016-10-28T04:42:09.498Z,974.59
2016-10-28T04:43:18.199Z,974.62
2016-10-28T04:44:26.899Z,974.76
2016-10-28T04:45:35.602Z,974.74
2016-10-28T04:46:44.307Z,974.82
2016-10-28T04:47:53.007Z,974.82
2016-10-28T04:49:01.710Z,974.88
2016-10-28T04:50:10.415Z,974.87
2016-10-28T04:51:19.116Z,974.95
2016-10-28T04:52:27.817Z,974.89
2016-10-28T04:53:36.518Z,974.95
2016-10-28T04:54:45.215Z,974.99
2016-10-28T04:55:53.918Z,975.02
2016-10-28T04:57:02.616Z,974.97
2016-10-28T04:58:11.321Z,975
2016-10-28T04:59:20.060Z,975.02
2016-10-28T05:00:29.098Z,975.01
2016-10-28T05:01:37.795Z,975.02
2016-10-28T05:02:46.529Z,975.04
2016-10-28T05:03:55.226Z,975.03
2016-10-28T05:05:03.919Z,975.02
2016-10-28T05:06:12.618Z,975.01
2016-10-28T05:07:21.318Z,975.01
2016-10-28T05:08:30.020Z,974.95
2016-10-28T05:09:38.764Z,975
2016-10-28T05:10:47.470Z,975.01
2016-10-28T05:11:56.169Z,975.04
2016-10-28T05:13:04.870Z,975.09
2016-10-28T05:14:13.600Z,975.09
2016-10-28T05:15:22.302Z,975.13
2016-10-28T05:16:31.041Z,975.15
2016-10-28T05:17:39.843Z,975.2
2016-10-28T05:18:48.543Z,975.24
2016-10-28T05:19:57.242Z,975.25
2016-10-28T05:21:05.947Z,975.24
2016-10-28T05:22:14.640Z,975.28
2016-10-28T05:23:23.346Z,975.26
2016-10-28T05:24:32.051Z,975.28
2016-10-28T05:25:40.750Z,975.24
2016-10-28T05:26:49.452Z,975.21
2016-10-28T05:27:58.183Z,975.21
2016-10-28T05:29:07.240Z,975.19
2016-10-28T05:30:15.939Z,975.23
2016-10-28T05:31:24.636Z,975.24
2016-10-28T05:32:33.368Z,975.26
2016-10-28T05:33:42.071Z,975.29
2016-10-28T05:34:51.078Z,975.3
2016-10-28T05:35:59.784Z,975.31
2016-10-28T05:37:08.527Z,975.29
2016-10-28T05:38:17.226Z,975.3
2016-10-28T05:39:25.928Z,975.28
2016-10-28T05:40:34.623Z,975.33
2016-10-28T05:41:43.324Z,975.33
2016-10-28T05:42:52.030Z,975.36
2016-10-28T05:44:00.753Z,975.37
2016-10-28T05:45:09.500Z,975.38
2016-10-28T05:46:18.201Z,975.39
2016-10-28T05:47:26.895Z,975.44
2016-10-28T05:48:35.592Z,975.45
2016-10-28T05:49:44.291Z,975.51
2016-10-28T05:50:52.985Z,975.53
2016-10-28T05:52:01.725Z,975.5
2016-10-28T05:53:10.430Z,975.52
2016-10-28T05:54:19.131Z,975.53
2016-10-28T05:55:27.831Z,975.5
2016-10-28T05:56:36.527Z,975.48
2016-10-28T05:57:45.225Z,975.46
2016-10-28T05:58:53.951Z,975.48
2016-10-28T06:00:02.967Z,975.45
2016-10-28T06:01:11.667Z,975.46
2016-10-28T06:02:20.415Z,975.52
2016-10-28T06:03:29.127Z,975.55
2016-10-28T06:04:37.829Z,975.55
2016-10-28T06:05:46.530Z,975.55
2016-10-28T06:06:55.235Z,975.57
2016-10-28T06:08:03.936Z,975.52
2016-10-28T06:09:12.632Z,975.44
2016-10-28T06:10:21.335Z,975.34
2016-10-28T06:11:30.059Z,975.39
2016-10-28T06:12:38.764Z,975.36
2016-10-28T06:13:47.466Z,975.4
2016-10-28T06:14:56.169Z,975.44
2016-10-28T06:16:04.902Z,975.43
2016-10-28T06:17:13.600Z,975.48
2016-10-28T06:18:22.301Z,975.46
2016-10-28T06:19:31.001Z,975.51
2016-10-28T06:20:39.735Z,975.54
2016-10-28T06:21:48.429Z,975.57
2016-10-28T06:22:57.160Z,975.64
2016-10-28T06:24:05.872Z,975.64
2016-10-28T06:25:14.568Z,975.6
2016-10-28T06:26:23.269Z,975.61
2016-10-28T06:27:31.968Z,975.55
2016-10-28T06:28:40.666Z,975.58
2016-10-28T06:29:49.361Z,975.64
2016-10-28T06:30:58.071Z,975.66
2016-10-28T06:32:06.765Z,975.68
2016-10-28T06:33:15.504Z,975.7
2016-10-28T06:34:24.201Z,975.77
2016-10-28T06:35:32.901Z,975.77
2016-10-28T06:36:41.604Z,975.76
2016-10-28T06:37:50.303Z,975.73
2016-10-28T06:38:59.001Z,975.77
2016-10-28T06:40:07.702Z,975.73
2016-10-28T06:41:16.400Z,975.76
2016-10-28T06:42:25.095Z,975.78
2016-10-28T06:43:33.790Z,975.82
2016-10-28T06:44:42.486Z,975.82
2016-10-28T06:45:51.185Z,975.83
2016-10-28T06:46:59.932Z,975.85
2016-10-28T06:48:08.626Z,975.89
2016-10-28T06:49:17.324Z,975.89
2016-10-28T06:50:26.018Z,975.93
2016-10-28T06:51:34.713Z,975.97
2016-10-28T06:52:43.413Z,975.94
2016-10-28T06:53:52.147Z,976
2016-10-28T06:55:00.888Z,976
2016-10-28T06:56:09.585Z,975.96
2016-10-28T06:57:18.911Z,975.98
2016-10-28T06:58:27.646Z,975.98
2016-10-28T06:59:36.351Z,976.01
2016-10-28T07:00:45.049Z,976.03
2016-10-28T07:01:53.741Z,976.02
2016-10-28T07:03:02.442Z,976.01
2016-10-28T07:04:11.143Z,975.98
2016-10-28T07:05:19.841Z,975.96
2016-10-28T07:06:28.537Z,976.01
2016-10-28T07:07:37.277Z,975.93
2016-10-28T07:08:46.018Z,975.87
2016-10-28T07:09:54.720Z,975.89
2016-10-28T07:11:03.466Z,975.88
2016-10-28T07:12:12.161Z,975.89
2016-10-28T07:13:20.866Z,975.95
2016-10-28T07:14:29.560Z,975.95
2016-10-28T07:15:39.521Z,975.93
2016-10-28T07:16:48.214Z,975.96
2016-10-28T07:17:56.916Z,976.07
2016-10-28T07:19:05.616Z,976.01
2016-10-28T07:20:14.315Z,976.02
2016-10-28T07:21:23.039Z,976.03
2016-10-28T07:22:31.766Z,976.1
2016-10-28T07:23:40.656Z,976.24
2016-10-28T07:24:49.353Z,976.13
2016-10-28T07:25:58.058Z,976.17
2016-10-28T07:27:06.752Z,976.27
2016-10-28T07:28:15.444Z,976.2
2016-10-28T07:29:24.140Z,976.22
2016-10-28T07:30:32.884Z,976.28
2016-10-28T07:31:41.590Z,976.31
2016-10-28T07:32:50.293Z,976.26
2016-10-28T07:33:59.003Z,976.3
2016-10-28T07:35:07.709Z,976.36
2016-10-28T07:36:16.422Z,976.33
2016-10-28T07:37:25.125Z,976.42
2016-10-28T07:38:33.825Z,976.35
2016-10-28T07:39:42.532Z,976.29
2016-10-28T07:40:51.231Z,976.32
2016-10-28T07:41:59.936Z,976.37
2016-10-28T07:43:08.644Z,976.35
2016-10-28T07:44:17.479Z,976.34
2016-10-28T07:45:26.211Z,976.47
2016-10-28T07:46:34.953Z,976.39
2016-10-28T07:47:43.661Z,976.47
2016-10-28T07:48:52.366Z,976.5
2016-10-28T07:50:01.105Z,976.55
2016-10-28T07:51:09.805Z,976.5
2016-10-28T07:52:18.506Z,976.37
2016-10-28T07:53:27.208Z,976.47
2016-10-28T07:54:35.909Z,976.57
2016-10-28T07:55:44.604Z,976.54
2016-10-28T07:56:53.303Z,976.52
2016-10-28T07:58:02.007Z,976.65
2016-10-28T07:59:10.713Z,976.65
2016-10-28T08:00:19.414Z,976.59
2016-10-28T08:01:28.112Z,976.76
2016-10-28T08:02:36.816Z,976.72
2016-10-28T08:03:45.526Z,976.72
2016-10-28T08:04:54.225Z,976.71
2016-10-28T08:06:02.929Z,976.72
2016-10-28T08:07:11.631Z,976.73
2016-10-28T08:08:20.349Z,976.71
2016-10-28T08:09:29.044Z,976.77
2016-10-28T08:10:37.747Z,976.73
2016-10-28T08:11:46.461Z,976.79
2016-10-28T08:12:55.164Z,976.67
2016-10-28T08:14:03.872Z,976.78
2016-10-28T08:15:12.578Z,976.71
2016-10-28T08:16:21.284Z,976.66
2016-10-28T08:17:29.980Z,976.6
2016-10-28T08:18:38.683Z,976.57
2016-10-28T08:19:47.385Z,976.56
2016-10-28T08:20:56.081Z,976.56
2016-10-28T08:22:04.776Z,976.55
2016-10-28T08:23:13.542Z,976.52
2016-10-28T08:24:22.238Z,976.53
2016-10-28T08:25:30.942Z,976.54
2016-10-28T08:26:39.641Z,976.55
2016-10-28T08:27:48.339Z,976.52
2016-10-28T08:28:57.038Z,976.53
2016-10-28T08:30:05.740Z,976.48
2016-10-28T08:31:14.474Z,976.55
2016-10-28T08:32:23.225Z,976.51
2016-10-28T08:33:31.930Z,976.48
2016-10-28T08:34:40.674Z,976.52
2016-10-28T08:35:49.375Z,976.52
2016-10-28T08:36:58.081Z,976.52
2016-10-28T08:38:06.785Z,976.54
2016-10-28T08:39:15.488Z,976.63
2016-10-28T08:40:24.195Z,976.61
2016-10-28T08:41:32.893Z,976.66
2016-10-28T08:42:41.590Z,976.78
2016-10-28T08:43:50.325Z,976.8
2016-10-28T08:44:59.039Z,976.83
2016-10-28T08:46:07.743Z,976.86
2016-10-28T08:47:16.443Z,976.87
2016-10-28T08:48:25.139Z,976.88
2016-10-28T08:49:33.840Z,976.92
2016-10-28T08:50:42.551Z,976.84
2016-10-28T08:51:51.593Z,976.88
2016-10-28T08:53:00.297Z,976.88
2016-10-28T08:54:09.052Z,976.92
2016-10-28T08:55:17.751Z,976.96
2016-10-28T08:56:26.454Z,976.92
2016-10-28T08:57:35.155Z,977.01
2016-10-28T08:58:43.863Z,976.94
2016-10-28T08:59:52.568Z,976.95
2016-10-28T09:01:01.271Z,976.92
2016-10-28T09:02:09.979Z,976.95
2016-10-28T09:03:18.678Z,976.89
2016-10-28T09:04:27.378Z,976.97
2016-10-28T09:05:36.126Z,976.92
2016-10-28T09:06:44.824Z,976.93
2016-10-28T09:07:53.521Z,976.92
2016-10-28T09:09:02.229Z,977.02
2016-10-28T09:10:10.930Z,977.16
2016-10-28T09:11:19.632Z,977.07
2016-10-28T09:12:28.333Z,977
2016-10-28T09:13:37.033Z,976.95
2016-10-28T09:14:45.742Z,976.99
2016-10-28T09:15:54.450Z,976.9
2016-10-28T09:17:03.189Z,976.98
2016-10-28T09:18:11.919Z,976.96
2016-10-28T09:19:20.624Z,977.02
2016-10-28T09:20:29.333Z,977.04
2016-10-28T09:21:38.035Z,977.03
2016-10-28T09:22:46.733Z,977.11
2016-10-28T09:23:55.430Z,977.09
2016-10-28T09:25:04.138Z,977.17
2016-10-28T09:26:12.843Z,977.15
2016-10-28T09:27:21.543Z,977.16
2016-10-28T09:28:30.255Z,977.19
2016-10-28T09:29:38.957Z,977.21
2016-10-28T09:30:47.653Z,977.16
2016-10-28T09:31:56.354Z,977.32
2016-10-28T09:33:05.052Z,977.19
2016-10-28T09:34:13.754Z,977.17
2016-10-28T09:35:22.455Z,977.28
2016-10-28T09:36:31.158Z,977.27
2016-10-28T09:37:39.858Z,977.27
2016-10-28T09:38:48.576Z,977.31
2016-10-28T09:39:57.275Z,977.31
2016-10-28T09:41:05.976Z,977.31
2016-10-28T09:42:14.679Z,977.27
2016-10-28T09:43:23.382Z,977.35
2016-10-28T09:44:32.129Z,977.37
2016-10-28T09:45:40.831Z,977.35
2016-10-28T09:46:49.534Z,977.4
2016-10-28T09:47:58.235Z,977.46
2016-10-28T09:49:06.941Z,977.51
2016-10-28T09:50:15.641Z,977.41
2016-10-28T09:51:24.341Z,977.49
2016-10-28T09:52:33.082Z,977.46
2016-10-28T09:53:41.784Z,977.49
2016-10-28T09:54:50.502Z,977.46
2016-10-28T09:55:59.206Z,977.48
2016-10-28T09:57:07.904Z,977.51
2016-10-28T09:58:16.609Z,977.51
2016-10-28T09:59:25.314Z,977.53
2016-10-28T10:00:34.020Z,977.52
2016-10-28T10:01:42.761Z,977.6
2016-10-28T10:02:51.468Z,977.5
2016-10-28T10:04:00.168Z,977.44
2016-10-28T10:05:08.873Z,977.48
2016-10-28T10:06:17.571Z,977.51
2016-10-28T10:07:26.274Z,977.51
2016-10-28T10:08:34.975Z,977.51
2016-10-28T10:09:43.732Z,977.51
2016-10-28T10:10:52.454Z,977.44
2016-10-28T10:12:01.161Z,977.42
2016-10-28T10:13:09.865Z,977.38
2016-10-28T10:14:18.565Z,977.41
2016-10-28T10:15:27.267Z,977.32
2016-10-28T10:16:35.968Z,977.3
2016-10-28T10:17:44.666Z,977.29
2016-10-28T10:18:53.376Z,977.27
2016-10-28T10:20:02.076Z,977.29
2016-10-28T10:21:10.781Z,977.3
2016-10-28T10:22:19.483Z,977.32
2016-10-28T10:23:28.180Z,977.29
2016-10-28T10:24:36.880Z,977.22
2016-10-28T10:25:45.582Z,977.32
2016-10-28T10:26:54.284Z,977.33
2016-10-28T10:28:02.996Z,977.23
2016-10-28T10:29:11.706Z,977.28
2016-10-28T10:30:20.409Z,977.31
2016-10-28T10:31:29.110Z,977.28
2016-10-28T10:32:37.822Z,977.37
2016-10-28T10:33:46.846Z,977.41
2016-10-28T10:34:55.547Z,977.5
2016-10-28T10:36:04.285Z,977.43
2016-10-28T10:37:12.985Z,977.36
2016-10-28T10:38:21.685Z,977.35
2016-10-28T10:39:30.400Z,977.35
2016-10-28T10:40:39.116Z,977.35
2016-10-28T10:41:47.823Z,977.35
2016-10-28T10:42:56.524Z,977.35
2016-10-28T10:44:05.224Z,977.45
2016-10-28T10:45:13.927Z,977.33
2016-10-28T10:46:22.654Z,977.44
2016-10-28T10:47:31.427Z,977.44
2016-10-28T10:48:40.133Z,977.45
2016-10-28T10:49:48.842Z,977.4
2016-10-28T10:50:57.548Z,977.32
2016-10-28T10:52:06.265Z,977.39
2016-10-28T10:53:14.972Z,977.41
2016-10-28T10:54:23.678Z,977.42
2016-10-28T10:55:32.390Z,977.35
2016-10-28T10:56:41.095Z,977.36
2016-10-28T10:57:49.800Z,977.34
2016-10-28T10:58:58.519Z,977.33
2016-10-28T11:00:07.228Z,977.43
2016-10-28T11:01:15.941Z,977.34
2016-10-28T11:02:24.643Z,977.35
2016-10-28T11:03:33.352Z,977.41
2016-10-28T11:04:42.061Z,977.41
2016-10-28T11:05:50.765Z,977.34
2016-10-28T11:06:59.471Z,977.36
2016-10-28T11:08:08.183Z,977.3
2016-10-28T11:09:16.890Z,977.33
2016-10-28T11:10:25.655Z,977.34
2016-10-28T11:11:34.367Z,977.35
2016-10-28T11:12:43.080Z,977.27
2016-10-28T11:13:51.817Z,977.36
2016-10-28T11:15:00.839Z,977.33
2016-10-28T11:16:09.547Z,977.33
2016-10-28T11:17:18.261Z,977.37
2016-10-28T11:18:27.433Z,977.34
2016-10-28T11:19:36.150Z,977.34
2016-10-28T11:20:44.858Z,977.39
2016-10-28T11:21:53.566Z,977.38
2016-10-28T11:23:02.276Z,977.31
2016-10-28T11:24:10.984Z,977.36
2016-10-28T11:25:19.726Z,977.3
2016-10-28T11:26:28.437Z,977.31
2016-10-28T11:27:37.193Z,977.28
2016-10-28T11:28:45.901Z,977.32
2016-10-28T11:29:54.613Z,977.26
2016-10-28T11:31:03.324Z,977.24
2016-10-28T11:32:12.072Z,977.28
2016-10-28T11:33:20.785Z,977.3
2016-10-28T11:34:29.497Z,977.29
2016-10-28T11:35:38.211Z,977.21
2016-10-28T11:36:46.926Z,977.22
2016-10-28T11:37:55.632Z,977.25
2016-10-28T11:39:04.344Z,977.28
2016-10-28T11:40:13.058Z,977.28
2016-10-28T11:41:21.765Z,977.35
2016-10-28T11:42:30.514Z,977.43
2016-10-28T11:43:39.221Z,977.39
2016-10-28T11:44:47.932Z,977.39
2016-10-28T11:45:56.642Z,977.26
2016-10-28T11:47:05.428Z,977.29
2016-10-28T11:48:14.199Z,977.39
2016-10-28T11:49:22.946Z,977.32
2016-10-28T11:50:31.659Z,977.32
2016-10-28T11:51:40.368Z,977.29
2016-10-28T11:52:49.079Z,977.4
2016-10-28T11:53:57.790Z,977.37
2016-10-28T11:55:06.545Z,977.36
2016-10-28T11:56:15.260Z,977.49
2016-10-28T11:57:23.971Z,977.32
2016-10-28T11:58:32.693Z,977.29
2016-10-28T11:59:41.407Z,977.34
2016-10-28T12:00:50.117Z,977.32
2016-10-28T12:01:58.831Z,977.33
2016-10-28T12:03:07.975Z,977.38
2016-10-28T12:04:16.736Z,977.35
2016-10-28T12:05:25.763Z,977.28
2016-10-28T12:06:34.477Z,977.36
2016-10-28T12:07:43.188Z,977.32
2016-10-28T12:08:51.905Z,977.34
2016-10-28T12:10:00.658Z,977.31
2016-10-28T12:11:09.370Z,977.35
2016-10-28T12:12:18.400Z,977.37
2016-10-28T12:13:27.110Z,977.38
2016-10-28T12:14:35.823Z,977.44
2016-10-28T12:15:44.557Z,977.42
2016-10-28T12:16:53.582Z,977.47
2016-10-28T12:18:02.329Z,977.43
2016-10-28T12:19:11.042Z,977.47
2016-10-28T12:20:19.757Z,977.49
2016-10-28T12:21:28.469Z,977.44
2016-10-28T12:22:37.184Z,977.44
2016-10-28T12:23:45.923Z,977.46
2016-10-28T12:24:54.635Z,977.42
2016-10-28T12:26:03.343Z,977.35
2016-10-28T12:27:12.105Z,977.39
2016-10-28T12:28:20.816Z,977.48
2016-10-28T12:29:29.525Z,977.52
2016-10-28T12:30:38.232Z,977.47
2016-10-28T12:31:46.954Z,977.43
2016-10-28T12:32:55.663Z,977.44
2016-10-28T12:34:04.379Z,977.51
2016-10-28T12:35:13.096Z,977.49
2016-10-28T12:36:21.913Z,977.51
2016-10-28T12:37:30.630Z,977.5
2016-10-28T12:38:39.659Z,977.47
2016-10-28T12:39:48.377Z,977.46
2016-10-28T12:40:57.132Z,977.42
2016-10-28T12:42:05.847Z,977.46
2016-10-28T12:43:14.560Z,977.44
2016-10-28T12:44:23.586Z,977.46
2016-10-28T12:45:32.332Z,977.5
2016-10-28T12:46:41.046Z,977.68
2016-10-28T12:47:49.761Z,977.34
2016-10-28T12:48:58.478Z,977.32
2016-10-28T12:50:07.190Z,977.44
2016-10-28T12:51:15.937Z,977.4
2016-10-28T12:52:24.686Z,977.36
2016-10-28T12:53:33.392Z,977.25
2016-10-28T12:54:42.103Z,977.25
2016-10-28T12:55:51.137Z,977.28
2016-10-28T12:56:59.846Z,977.42
2016-10-28T12:58:08.603Z,977.41
2016-10-28T12:59:17.391Z,977.41
2016-10-28T13:00:26.103Z,977.5
2016-10-28T13:01:34.846Z,977.4
2016-10-28T13:02:43.555Z,977.42
2016-10-28T13:03:52.298Z,977.3
2016-10-28T13:05:01.005Z,977.32
2016-10-28T13:06:09.718Z,977.25
2016-10-28T13:07:18.746Z,977.31
2016-10-28T13:08:27.475Z,977.29
2016-10-28T13:09:36.221Z,977.27
2016-10-28T13:10:44.925Z,977.22
2016-10-28T13:11:53.668Z,977.25
2016-10-28T13:13:02.701Z,977.27
2016-10-28T13:14:11.452Z,977.17
2016-10-28T13:15:20.160Z,977.24
2016-10-28T13:16:28.872Z,977.35
2016-10-28T13:17:37.581Z,977.31
2016-10-28T13:18:46.289Z,977.23
2016-10-28T13:19:55.315Z,977.28
2016-10-28T13:21:04.026Z,977.48
2016-10-28T13:22:12.729Z,977.36
2016-10-28T13:23:21.433Z,977.19
2016-10-28T13:24:30.146Z,977.21
2016-10-28T13:25:38.854Z,977.23
2016-10-28T13:26:47.558Z,977.21
2016-10-28T13:27:56.667Z,977.17
2016-10-28T13:29:05.416Z,977.2
2016-10-28T13:30:14.121Z,977.19
2016-10-28T13:31:23.146Z,977.15
2016-10-28T13:32:31.852Z,977.21
2016-10-28T13:33:40.561Z,977.21
2016-10-28T13:34:49.265Z,977.37
2016-10-28T13:35:57.970Z,977.27
2016-10-28T13:37:06.708Z,977.13
2016-10-28T13:38:15.416Z,977.17
2016-10-28T13:39:24.122Z,977.29
2016-10-28T13:40:32.848Z,977.28
2016-10-28T13:41:41.561Z,977.09
2016-10-28T13:42:50.582Z,977.26
2016-10-28T13:43:59.291Z,977.2
2016-10-28T13:45:08.005Z,977.3
2016-10-28T13:46:16.710Z,977.26
2016-10-28T13:47:25.414Z,977.3
2016-10-28T13:48:34.129Z,977.32
2016-10-28T13:49:42.831Z,977.34
2016-10-28T13:50:51.536Z,977.38
2016-10-28T13:52:00.278Z,977.36
2016-10-28T13:53:08.986Z,977.36
2016-10-28T13:54:17.688Z,977.3
2016-10-28T13:55:26.395Z,977.36
2016-10-28T13:56:35.100Z,977.41
2016-10-28T13:57:43.810Z,977.52
2016-10-28T13:58:52.525Z,977.61
2016-10-28T14:00:01.267Z,977.52
2016-10-28T14:01:10.292Z,977.54
2016-10-28T14:02:18.997Z,977.61
2016-10-28T14:03:27.703Z,977.59
2016-10-28T14:04:36.421Z,977.66
2016-10-28T14:05:45.131Z,977.64
2016-10-28T14:06:53.836Z,977.75
2016-10-28T14:08:02.578Z,977.82
2016-10-28T14:09:11.291Z,977.79
2016-10-28T14:10:19.998Z,977.75
2016-10-28T14:11:28.705Z,977.77
2016-10-28T14:12:37.411Z,977.74
2016-10-28T14:13:46.110Z,977.76
2016-10-28T14:14:54.812Z,977.77
2016-10-28T14:16:03.514Z,977.73
2016-10-28T14:17:12.215Z,977.74
2016-10-28T14:18:20.925Z,977.74
2016-10-28T14:19:29.629Z,977.75
2016-10-28T14:20:38.377Z,977.75